createdAt,value
2019-01-18T00:00:25.020Z,8.40
2019-01-18T00:01:25.011Z,8.10
2019-01-18T00:02:24.999Z,9.00
2019-01-18T00:03:24.991Z,10.60
2019-01-18T00:04:25.003Z,11.20
2019-01-18T00:05:24.967Z,8.30
2019-01-18T00:06:24.957Z,9.10
2019-01-18T00:07:24.943Z,8.50
2019-01-18T00:08:24.937Z,8.40
2019-01-18T00:09:24.922Z,7.60
2019-01-18T00:10:24.935Z,7.90
2019-01-18T00:11:24.902Z,13.20
2019-01-18T00:12:24.889Z,8.70
2019-01-18T00:13:24.878Z,9.00
2019-01-18T00:14:24.867Z,8.00
2019-01-18T00:15:24.882Z,9.30
2019-01-18T00:16:24.844Z,7.10
2019-01-18T00:17:24.832Z,7.50
2019-01-18T00:18:24.823Z,8.70
2019-01-18T00:19:24.810Z,9.70
2019-01-18T00:20:24.822Z,10.90
2019-01-18T00:21:24.791Z,6.70
2019-01-18T00:22:24.777Z,9.30
2019-01-18T00:23:24.769Z,10.50
2019-01-18T00:24:24.756Z,8.00
2019-01-18T00:25:24.768Z,10.20
2019-01-18T00:26:24.738Z,6.50
2019-01-18T00:27:24.726Z,10.50
2019-01-18T00:28:24.714Z,8.10
2019-01-18T00:29:29.556Z,10.00
2019-01-18T00:30:26.206Z,12.50
2019-01-18T00:31:24.679Z,9.80
2019-01-18T00:32:24.668Z,9.30
2019-01-18T00:33:24.660Z,8.90
2019-01-18T00:34:24.647Z,10.50
2019-01-18T00:35:24.658Z,9.30
2019-01-18T00:36:24.625Z,9.50
2019-01-18T00:37:24.615Z,7.70
2019-01-18T00:48:49.468Z,9.80
2019-01-18T00:49:22.422Z,13.30
2019-01-18T00:50:22.432Z,13.30
2019-01-18T00:51:22.393Z,14.30
2019-01-18T00:52:22.379Z,11.10
2019-01-18T00:53:22.370Z,13.50
2019-01-18T00:54:22.357Z,13.80
2019-01-18T00:55:22.367Z,10.70
2019-01-18T00:56:22.335Z,11.50
2019-01-18T00:57:22.327Z,12.80
2019-01-18T00:58:22.315Z,12.70
2019-01-18T00:59:22.302Z,10.90
2019-01-18T01:00:22.318Z,11.90
2019-01-18T01:01:22.281Z,12.80
2019-01-18T01:02:22.269Z,12.40
2019-01-18T01:03:22.258Z,13.60
2019-01-18T01:04:22.250Z,12.40
2019-01-18T01:05:22.299Z,12.20
2019-01-18T01:06:22.226Z,16.10
2019-01-18T01:07:22.216Z,13.90
2019-01-18T01:08:22.204Z,13.80
2019-01-18T01:09:22.192Z,13.00
2019-01-18T01:10:22.184Z,14.80
2019-01-18T01:11:22.197Z,14.10
2019-01-18T01:12:22.160Z,15.40
2019-01-18T01:13:22.149Z,16.90
2019-01-18T01:14:22.138Z,15.20
2019-01-18T01:15:22.128Z,13.50
2019-01-18T01:16:22.912Z,12.90
2019-01-18T01:17:22.114Z,13.60
2019-01-18T01:18:22.098Z,12.60
2019-01-18T01:19:22.087Z,13.60
2019-01-18T01:20:22.072Z,14.60
2019-01-18T01:21:22.060Z,15.60
2019-01-18T01:22:22.079Z,13.70
2019-01-18T01:23:22.141Z,15.70
2019-01-18T01:24:22.028Z,15.60
2019-01-18T01:25:22.024Z,13.50
2019-01-18T01:26:22.006Z,15.40
2019-01-18T01:27:22.014Z,15.40
2019-01-18T01:28:21.984Z,12.00
2019-01-18T01:29:21.973Z,12.90
2019-01-18T01:30:21.967Z,13.60
2019-01-18T01:31:21.952Z,13.00
2019-01-18T01:32:21.966Z,16.60
2019-01-18T01:33:21.929Z,13.80
2019-01-18T01:34:21.924Z,14.50
2019-01-18T01:35:21.907Z,13.30
2019-01-18T01:36:21.900Z,12.30
2019-01-18T01:37:21.905Z,13.10
2019-01-18T01:38:21.874Z,12.60
2019-01-18T01:39:21.865Z,13.20
2019-01-18T01:40:21.851Z,15.60
2019-01-18T01:41:21.840Z,16.00
2019-01-18T01:42:21.856Z,15.30
2019-01-18T01:43:21.820Z,15.20
2019-01-18T01:44:21.807Z,16.60
2019-01-18T01:45:21.798Z,14.50
2019-01-18T01:46:21.785Z,16.00
2019-01-18T01:47:21.780Z,15.60
2019-01-18T01:48:21.912Z,14.90
2019-01-18T01:49:21.755Z,17.10
2019-01-18T01:50:21.742Z,17.60
2019-01-18T01:51:21.735Z,15.20
2019-01-18T01:52:21.723Z,14.70
2019-01-18T01:53:21.729Z,16.20
2019-01-18T01:54:21.709Z,14.30
2019-01-18T01:55:21.691Z,15.00
2019-01-18T01:56:21.684Z,16.20
2019-01-18T01:57:21.670Z,16.80
2019-01-18T01:58:21.678Z,18.00
2019-01-18T01:59:21.647Z,16.50
2019-01-18T02:00:21.631Z,16.50
2019-01-18T02:01:21.623Z,13.30
2019-01-18T02:02:21.611Z,16.00
2019-01-18T02:03:21.620Z,16.70
2019-01-18T02:04:21.590Z,15.50
2019-01-18T02:05:21.579Z,18.80
2019-01-18T02:06:21.566Z,15.70
2019-01-18T02:07:21.554Z,16.40
2019-01-18T02:08:21.571Z,20.30
2019-01-18T02:09:21.533Z,16.70
2019-01-18T02:10:21.522Z,19.10
2019-01-18T02:11:21.513Z,19.40
2019-01-18T02:12:21.500Z,23.10
2019-01-18T02:13:21.494Z,19.90
2019-01-18T02:14:21.505Z,20.00
2019-01-18T02:15:21.469Z,15.50
2019-01-18T02:16:21.458Z,20.00
2019-01-18T02:17:21.445Z,19.70
2019-01-18T02:18:21.433Z,16.40
2019-01-18T02:19:21.445Z,18.70
2019-01-18T02:20:21.416Z,20.10
2019-01-18T02:21:21.402Z,20.50
2019-01-18T02:22:21.391Z,19.90
2019-01-18T02:23:21.379Z,22.30
2019-01-18T02:24:21.402Z,19.90
2019-01-18T02:25:21.356Z,20.70
2019-01-18T02:26:21.346Z,22.80
2019-01-18T02:27:21.338Z,17.10
2019-01-18T02:28:21.324Z,19.10
2019-01-18T02:29:21.313Z,19.90
2019-01-18T02:30:21.323Z,23.20
2019-01-18T02:31:21.292Z,22.30
2019-01-18T02:32:21.281Z,18.50
2019-01-18T02:33:21.271Z,26.50
2019-01-18T02:34:21.259Z,18.90
2019-01-18T02:35:21.270Z,22.20
2019-01-18T02:36:21.236Z,24.30
2019-01-18T02:37:21.227Z,22.40
2019-01-18T02:38:21.213Z,19.20
2019-01-18T02:39:21.204Z,20.70
2019-01-18T02:40:21.236Z,22.20
2019-01-18T02:41:21.183Z,21.90
2019-01-18T02:42:21.170Z,22.40
2019-01-18T02:43:21.161Z,20.00
2019-01-18T02:44:21.149Z,22.40
2019-01-18T02:45:21.138Z,21.50
2019-01-18T02:46:21.147Z,19.50
2019-01-18T02:47:21.116Z,23.80
2019-01-18T02:48:21.105Z,21.90
2019-01-18T02:49:21.095Z,19.60
2019-01-18T02:50:21.083Z,22.20
2019-01-18T02:51:21.092Z,21.70
2019-01-18T02:52:21.060Z,22.90
2019-01-18T02:53:21.049Z,21.60
2019-01-18T02:54:21.040Z,20.30
2019-01-18T02:55:28.559Z,19.60
2019-01-18T02:56:22.041Z,20.90
2019-01-18T02:57:21.048Z,25.00
2019-01-18T02:58:20.993Z,21.30
2019-01-18T02:59:20.986Z,20.40
2019-01-18T03:00:20.998Z,21.40
2019-01-18T03:01:20.985Z,22.50
2019-01-18T03:02:20.950Z,18.30
2019-01-18T03:03:20.945Z,20.60
2019-01-18T03:04:20.928Z,22.60
2019-01-18T03:05:20.921Z,21.90
2019-01-18T03:06:21.928Z,22.60
2019-01-18T03:07:20.896Z,22.40
2019-01-18T03:08:20.885Z,23.70
2019-01-18T03:09:20.880Z,24.50
2019-01-18T03:10:20.862Z,22.30
2019-01-18T03:11:20.850Z,24.90
2019-01-18T03:12:20.860Z,22.40
2019-01-18T03:13:20.827Z,24.40
2019-01-18T03:14:20.819Z,20.80
2019-01-18T03:15:20.807Z,21.00
2019-01-18T03:16:20.799Z,24.20
2019-01-18T03:17:20.805Z,22.30
2019-01-18T03:18:20.778Z,22.00
2019-01-18T03:19:20.765Z,27.60
2019-01-18T03:20:20.752Z,25.80
2019-01-18T03:21:20.741Z,22.90
2019-01-18T03:22:20.755Z,25.20
2019-01-18T03:23:20.719Z,22.20
2019-01-18T03:24:20.708Z,24.60
2019-01-18T03:25:20.696Z,22.70
2019-01-18T03:26:20.691Z,22.80
2019-01-18T03:27:20.682Z,20.70
2019-01-18T03:28:20.685Z,23.50
2019-01-18T03:29:20.655Z,25.30
2019-01-18T03:30:21.341Z,26.70
2019-01-18T03:31:20.633Z,26.90
2019-01-18T03:32:20.628Z,26.60
2019-01-18T03:33:20.639Z,25.10
2019-01-18T03:34:20.600Z,26.90
2019-01-18T03:35:20.590Z,23.30
2019-01-18T03:36:20.580Z,27.70
2019-01-18T03:37:20.567Z,25.10
2019-01-18T03:38:20.925Z,22.60
2019-01-18T03:39:20.542Z,22.20
2019-01-18T03:40:20.532Z,25.40
2019-01-18T03:41:20.521Z,27.20
2019-01-18T03:42:20.510Z,22.30
2019-01-18T03:43:20.521Z,25.30
2019-01-18T03:44:20.492Z,26.10
2019-01-18T03:45:20.478Z,26.50
2019-01-18T03:46:20.470Z,26.40
2019-01-18T03:47:20.455Z,28.70
2019-01-18T03:48:20.467Z,25.20
2019-01-18T03:49:20.433Z,22.90
2019-01-18T03:50:20.427Z,26.60
2019-01-18T03:51:20.421Z,26.50
2019-01-18T03:52:20.401Z,28.40
2019-01-18T03:53:20.410Z,29.80
2019-01-18T03:54:20.383Z,27.60
2019-01-18T03:55:20.370Z,28.80
2019-01-18T03:56:20.357Z,24.10
2019-01-18T03:57:20.348Z,29.90
2019-01-18T03:58:20.353Z,33.60
2019-01-18T03:59:20.323Z,32.20
2019-01-18T04:00:25.756Z,30.60
2019-01-18T04:01:21.302Z,32.20
2019-01-18T04:02:20.289Z,32.60
2019-01-18T04:03:20.321Z,34.20
2019-01-18T04:04:20.267Z,34.30
2019-01-18T04:05:20.258Z,30.70
2019-01-18T04:06:20.247Z,26.90
2019-01-18T04:07:20.238Z,29.60
2019-01-18T04:08:20.223Z,31.30
2019-01-18T04:09:20.235Z,31.10
2019-01-18T04:10:20.205Z,33.00
2019-01-18T04:11:20.189Z,30.00
2019-01-18T04:12:20.180Z,26.80
2019-01-18T04:13:20.171Z,33.10
2019-01-18T04:14:20.184Z,29.30
2019-01-18T04:15:20.148Z,29.10
2019-01-18T04:16:20.148Z,26.40
2019-01-18T04:17:20.124Z,28.80
2019-01-18T04:18:20.938Z,34.20
2019-01-18T04:19:20.106Z,26.30
2019-01-18T04:20:20.094Z,26.30
2019-01-18T04:21:20.080Z,26.10
2019-01-18T04:22:20.069Z,29.40
2019-01-18T04:23:20.145Z,31.50
2019-01-18T04:24:20.069Z,34.70
2019-01-18T04:25:20.038Z,33.70
2019-01-18T04:26:20.025Z,30.00
2019-01-18T04:27:20.018Z,28.30
2019-01-18T04:28:20.005Z,33.20
2019-01-18T04:29:20.015Z,27.50
2019-01-18T04:30:19.982Z,32.60
2019-01-18T04:31:19.973Z,29.90
2019-01-18T04:32:19.962Z,31.40
2019-01-18T04:33:19.950Z,30.40
2019-01-18T04:34:19.965Z,30.00
2019-01-18T04:35:19.933Z,27.20
2019-01-18T04:36:19.917Z,27.00
2019-01-18T04:37:19.906Z,30.00
2019-01-18T04:38:19.895Z,31.70
2019-01-18T04:39:19.885Z,34.40
2019-01-18T04:40:19.896Z,27.30
2019-01-18T04:41:19.866Z,29.30
2019-01-18T05:17:45.081Z,27.70
2019-01-18T05:18:45.091Z,32.00
2019-01-18T05:19:45.046Z,33.60
2019-01-18T05:20:45.031Z,36.50
2019-01-18T05:21:45.044Z,30.30
2019-01-18T05:22:45.008Z,31.10
2019-01-18T05:23:44.995Z,30.70
2019-01-18T05:24:49.395Z,32.40
2019-01-18T05:25:44.972Z,29.30
2019-01-18T05:26:44.965Z,33.50
2019-01-18T05:27:44.974Z,32.00
2019-01-18T05:28:44.944Z,29.70
2019-01-18T05:29:44.931Z,37.40
2019-01-18T05:30:47.688Z,29.70
2019-01-18T05:31:44.910Z,31.40
2019-01-18T05:32:44.926Z,34.50
2019-01-18T05:33:44.892Z,34.90
2019-01-18T05:34:44.875Z,32.30
2019-01-18T05:35:44.863Z,31.50
2019-01-18T05:36:44.855Z,34.20
2019-01-18T05:37:44.841Z,31.30
2019-01-18T05:38:44.852Z,28.20
2019-01-18T05:39:44.821Z,30.80
2019-01-18T05:40:44.814Z,30.00
2019-01-18T05:41:44.801Z,28.80
2019-01-18T05:42:44.787Z,33.30
2019-01-18T05:43:44.801Z,29.10
2019-01-18T05:44:44.768Z,33.90
2019-01-18T05:45:44.760Z,29.80
2019-01-18T05:46:44.745Z,28.60
2019-01-18T05:47:44.737Z,26.00
2019-01-18T05:48:44.747Z,28.00
2019-01-18T05:49:44.714Z,25.80
2019-01-18T05:50:44.705Z,33.70
2019-01-18T05:51:44.698Z,32.00
2019-01-18T05:52:44.685Z,41.00
2019-01-18T05:53:44.698Z,42.10
2019-01-18T05:54:44.663Z,40.10
2019-01-18T05:55:44.650Z,29.30
2019-01-18T05:56:44.646Z,33.70
2019-01-18T05:57:44.633Z,31.70
2019-01-18T05:58:44.623Z,28.10
2019-01-18T05:59:44.630Z,27.30
2019-01-18T06:00:44.596Z,27.30
2019-01-18T06:01:44.585Z,28.20
2019-01-18T06:02:44.571Z,31.10
2019-01-18T06:03:44.563Z,26.70
2019-01-18T06:04:44.577Z,27.00
2019-01-18T06:05:44.539Z,31.30
2019-01-18T06:06:44.529Z,25.70
2019-01-18T06:07:44.520Z,26.10
2019-01-18T06:08:44.506Z,25.60
2019-01-18T06:09:44.495Z,27.90
2019-01-18T06:10:44.507Z,29.70
2019-01-18T06:11:44.475Z,30.20
2019-01-18T06:12:44.463Z,31.00
2019-01-18T06:13:44.451Z,29.20
2019-01-18T06:14:44.441Z,27.10
2019-01-18T06:15:44.452Z,26.90
2019-01-18T06:16:44.421Z,30.10
2019-01-18T06:17:44.411Z,29.40
2019-01-18T06:18:44.397Z,31.90
2019-01-18T06:19:44.388Z,27.40
2019-01-18T06:20:45.113Z,30.30
2019-01-18T06:21:44.367Z,26.30
2019-01-18T06:22:44.355Z,30.10
2019-01-18T06:23:44.346Z,28.80
2019-01-18T06:24:44.341Z,27.60
2019-01-18T06:25:44.367Z,29.60
2019-01-18T06:26:44.314Z,28.10
2019-01-18T06:27:44.301Z,27.50
2019-01-18T06:28:44.289Z,30.70
2019-01-18T06:29:44.278Z,29.50
2019-01-18T06:30:44.270Z,30.30
2019-01-18T06:31:44.279Z,30.80
2019-01-18T06:32:44.245Z,32.80
2019-01-18T06:33:44.278Z,33.70
2019-01-18T06:34:44.223Z,32.30
2019-01-18T06:35:44.215Z,31.50
2019-01-18T06:36:44.230Z,31.30
2019-01-18T06:37:44.192Z,32.40
2019-01-18T06:38:44.182Z,31.60
2019-01-18T06:39:44.169Z,31.60
2019-01-18T06:40:44.158Z,32.50
2019-01-18T06:41:44.167Z,31.10
2019-01-18T06:42:44.137Z,30.80
2019-01-18T06:43:44.126Z,32.50
2019-01-18T06:44:44.115Z,32.90
2019-01-18T06:45:44.105Z,33.10
2019-01-18T06:46:44.115Z,35.40
2019-01-18T06:47:44.085Z,35.40
2019-01-18T06:48:44.074Z,35.60
2019-01-18T06:49:44.061Z,37.50
2019-01-18T06:50:44.067Z,35.90
2019-01-18T06:51:44.065Z,36.30
2019-01-18T06:52:44.031Z,35.90
2019-01-18T06:53:44.018Z,36.10
2019-01-18T06:54:44.008Z,38.00
2019-01-18T06:55:43.998Z,34.20
2019-01-18T06:56:44.009Z,41.10
2019-01-18T06:57:43.978Z,35.10
2019-01-18T06:58:43.964Z,34.60
2019-01-18T06:59:43.966Z,37.00
2019-01-18T07:00:43.942Z,34.30
2019-01-18T07:01:43.955Z,35.80
2019-01-18T07:02:43.920Z,37.50
2019-01-18T07:03:43.914Z,36.50
2019-01-18T07:04:43.903Z,36.90
2019-01-18T07:05:43.888Z,40.20
2019-01-18T07:06:43.898Z,37.50
2019-01-18T07:07:43.867Z,40.30
2019-01-18T07:08:43.854Z,42.80
2019-01-18T07:09:43.845Z,40.70
2019-01-18T07:10:43.843Z,43.10
2019-01-18T07:11:43.847Z,40.40
2019-01-18T07:12:43.818Z,43.90
2019-01-18T07:13:43.810Z,39.30
2019-01-18T07:14:43.802Z,44.40
2019-01-18T07:15:43.796Z,39.80
2019-01-18T07:16:43.798Z,38.20
2019-01-18T07:17:43.763Z,42.40
2019-01-18T07:18:43.756Z,39.60
2019-01-18T07:19:43.743Z,45.60
2019-01-18T07:20:43.726Z,39.10
2019-01-18T07:21:43.756Z,40.20
2019-01-18T07:22:43.713Z,41.20
2019-01-18T07:23:43.702Z,39.20
2019-01-18T07:24:43.694Z,40.20
2019-01-18T07:25:43.682Z,37.00
2019-01-18T07:26:43.698Z,37.10
2019-01-18T07:27:43.658Z,37.90
2019-01-18T07:28:43.649Z,41.60
2019-01-18T07:29:43.646Z,37.30
2019-01-18T07:30:43.629Z,42.30
2019-01-18T07:31:43.620Z,36.20
2019-01-18T07:32:43.644Z,37.20
2019-01-18T07:33:43.604Z,36.30
2019-01-18T07:34:43.589Z,35.10
2019-01-18T07:35:43.573Z,35.50
2019-01-18T07:36:43.573Z,38.20
2019-01-18T07:37:44.139Z,35.50
2019-01-18T07:38:43.539Z,35.00
2019-01-18T07:39:43.528Z,34.10
2019-01-18T07:40:43.528Z,33.70
2019-01-18T07:41:43.513Z,34.50
2019-01-18T07:42:43.505Z,31.90
2019-01-18T07:43:43.507Z,35.90
2019-01-18T07:44:43.474Z,34.70
2019-01-18T07:45:43.465Z,34.30
2019-01-18T07:46:43.450Z,35.10
2019-01-18T07:47:43.437Z,34.90
2019-01-18T07:48:43.453Z,34.80
2019-01-18T07:49:43.418Z,35.50
2019-01-18T07:50:43.404Z,37.10
2019-01-18T07:51:43.391Z,36.30
2019-01-18T07:52:49.656Z,34.20
2019-01-18T07:53:49.689Z,36.20
2019-01-18T07:54:49.639Z,35.80
2019-01-18T07:55:49.629Z,38.90
2019-01-18T07:56:49.662Z,37.30
2019-01-18T07:57:49.613Z,36.40
2019-01-18T07:58:49.596Z,38.80
2019-01-18T07:59:49.651Z,33.00
2019-01-18T08:00:49.571Z,35.00
2019-01-18T08:01:49.564Z,38.20
2019-01-18T08:02:49.550Z,37.90
2019-01-18T08:03:49.541Z,37.40
2019-01-18T08:04:49.566Z,38.30
2019-01-18T08:05:49.524Z,37.80
2019-01-18T08:06:49.508Z,37.40
2019-01-18T08:07:49.496Z,38.50
2019-01-18T08:08:49.488Z,35.20
2019-01-18T08:09:49.475Z,39.60
2019-01-18T08:10:49.486Z,37.50
2019-01-18T08:11:49.451Z,35.80
2019-01-18T08:12:49.443Z,33.90
2019-01-18T08:13:49.432Z,34.00
2019-01-18T08:14:49.422Z,37.30
2019-01-18T08:15:49.428Z,36.90
2019-01-18T08:16:49.433Z,34.00
2019-01-18T08:17:49.386Z,34.10
2019-01-18T08:18:49.376Z,42.60
2019-01-18T08:19:49.366Z,35.90
2019-01-18T08:20:49.375Z,39.70
2019-01-18T08:21:49.343Z,38.60
2019-01-18T08:22:49.333Z,36.20
2019-01-18T08:23:49.321Z,38.90
2019-01-18T08:24:49.310Z,36.50
2019-01-18T08:25:49.322Z,40.00
2019-01-18T08:26:49.289Z,40.00
2019-01-18T08:27:49.279Z,37.70
2019-01-18T08:28:49.266Z,37.80
2019-01-18T08:29:49.261Z,37.90
2019-01-18T08:30:49.269Z,35.50
2019-01-18T08:31:49.235Z,39.10
2019-01-18T08:32:49.222Z,38.20
2019-01-18T08:33:49.212Z,38.80
2019-01-18T08:34:49.202Z,38.00
2019-01-18T08:35:49.192Z,41.50
2019-01-18T08:36:49.203Z,37.70
2019-01-18T08:37:49.175Z,36.20
2019-01-18T08:38:49.158Z,39.00
2019-01-18T08:39:49.148Z,42.70
2019-01-18T08:40:49.139Z,44.00
2019-01-18T08:41:49.154Z,40.80
2019-01-18T08:42:49.119Z,46.90
2019-01-18T08:43:49.115Z,43.40
2019-01-18T08:44:49.102Z,47.60
2019-01-18T08:45:50.541Z,41.70
2019-01-18T08:46:49.119Z,43.90
2019-01-18T08:47:49.066Z,42.10
2019-01-18T08:48:49.059Z,43.00
2019-01-18T08:49:49.049Z,44.00
2019-01-18T08:50:49.036Z,42.70
2019-01-18T08:51:49.024Z,41.90
2019-01-18T08:52:49.036Z,45.30
2019-01-18T08:53:48.998Z,44.50
2019-01-18T08:54:48.987Z,42.90
2019-01-18T08:55:48.980Z,45.70
2019-01-18T08:56:48.969Z,45.00
2019-01-18T08:57:49.004Z,46.00
2019-01-18T08:58:48.943Z,50.20
2019-01-18T08:59:48.937Z,47.30
2019-01-18T09:00:48.970Z,46.40
2019-01-18T09:01:48.922Z,42.90
2019-01-18T09:02:48.908Z,41.20
2019-01-18T09:03:48.916Z,42.10
2019-01-18T09:04:48.883Z,42.30
2019-01-18T09:05:48.877Z,41.80
2019-01-18T09:06:48.860Z,41.90
2019-01-18T09:07:48.853Z,41.70
2019-01-18T09:08:48.873Z,38.30
2019-01-18T09:09:48.831Z,40.40
2019-01-18T09:10:48.822Z,42.10
2019-01-18T09:11:48.807Z,42.90
2019-01-18T09:12:48.805Z,42.50
2019-01-18T09:13:48.810Z,49.80
2019-01-18T09:14:48.777Z,41.90
2019-01-18T09:15:48.762Z,42.80
2019-01-18T09:16:48.750Z,39.90
2019-01-18T09:17:48.741Z,42.20
2019-01-18T09:18:49.304Z,44.30
2019-01-18T09:19:48.718Z,43.50
2019-01-18T09:20:48.709Z,47.40
2019-01-18T09:21:48.699Z,43.60
2019-01-18T09:22:48.687Z,43.00
2019-01-18T09:23:48.678Z,42.00
2019-01-18T09:24:48.692Z,47.80
2019-01-18T09:25:48.653Z,47.50
2019-01-18T09:26:48.647Z,42.60
2019-01-18T09:27:48.632Z,45.90
2019-01-18T09:28:48.621Z,41.00
2019-01-18T09:29:48.639Z,47.60
2019-01-18T09:30:48.604Z,43.60
2019-01-18T09:31:48.592Z,47.20
2019-01-18T09:32:48.580Z,42.40
2019-01-18T09:33:48.567Z,40.30
2019-01-18T09:34:48.561Z,42.00
2019-01-18T09:35:48.567Z,38.30
2019-01-18T09:36:48.539Z,39.90
2019-01-18T09:37:48.527Z,37.80
2019-01-18T09:38:48.514Z,40.00
2019-01-18T09:39:48.507Z,39.40
2019-01-18T09:40:48.517Z,42.20
2019-01-18T09:41:48.479Z,42.80
2019-01-18T09:42:48.481Z,41.30
2019-01-18T09:43:48.460Z,44.30
2019-01-18T09:44:48.450Z,42.80
2019-01-18T09:45:48.463Z,40.00
2019-01-18T09:46:48.427Z,36.20
2019-01-18T09:47:48.417Z,36.60
2019-01-18T09:48:48.448Z,35.30
2019-01-18T09:49:48.399Z,33.50
2019-01-18T09:50:48.412Z,36.00
2019-01-18T09:51:48.376Z,33.80
2019-01-18T09:52:48.364Z,31.80
2019-01-18T09:53:48.348Z,31.60
2019-01-18T09:54:48.342Z,28.90
2019-01-18T09:55:48.359Z,33.00
2019-01-18T09:56:48.318Z,33.10
2019-01-18T09:57:48.306Z,33.10
2019-01-18T09:58:48.298Z,37.60
2019-01-18T09:59:48.338Z,33.10
2019-01-18T10:00:48.344Z,33.90
2019-01-18T10:01:49.528Z,31.50
2019-01-18T10:02:48.267Z,30.70
2019-01-18T10:03:48.242Z,27.70
2019-01-18T10:04:48.230Z,29.00
2019-01-18T10:05:48.222Z,28.80
2019-01-18T10:06:48.237Z,30.20
2019-01-18T10:07:48.198Z,25.70
2019-01-18T10:08:48.189Z,27.70
2019-01-18T10:09:48.179Z,24.90
2019-01-18T10:10:48.167Z,26.50
2019-01-18T10:11:48.153Z,31.40
2019-01-18T10:12:48.167Z,27.00
2019-01-18T10:13:48.129Z,28.30
2019-01-18T10:14:48.120Z,28.70
2019-01-18T10:15:48.114Z,30.90
2019-01-18T10:16:48.103Z,28.60
2019-01-18T10:17:48.113Z,28.20
2019-01-18T10:18:48.880Z,25.00
2019-01-18T10:19:48.067Z,30.30
2019-01-18T10:20:48.058Z,25.20
2019-01-18T10:21:48.050Z,25.10
2019-01-18T10:22:48.063Z,25.50
2019-01-18T10:23:48.025Z,26.60
2019-01-18T10:24:48.013Z,24.90
2019-01-18T10:25:48.004Z,27.80
2019-01-18T10:26:47.993Z,26.40
2019-01-18T10:27:47.982Z,25.40
2019-01-18T10:28:47.994Z,29.00
2019-01-18T10:29:47.961Z,26.90
2019-01-18T10:30:47.962Z,28.90
2019-01-18T10:31:47.951Z,26.90
2019-01-18T10:32:47.930Z,27.60
2019-01-18T10:33:47.952Z,26.30
2019-01-18T10:34:47.913Z,28.30
2019-01-18T10:35:47.894Z,25.90
2019-01-18T10:36:47.938Z,25.40
2019-01-18T10:37:47.877Z,25.70
2019-01-18T10:38:48.982Z,28.70
2019-01-18T10:39:47.875Z,26.70
2019-01-18T10:40:47.840Z,25.80
2019-01-18T10:41:47.831Z,24.90
2019-01-18T10:42:47.824Z,27.40
2019-01-18T10:43:47.810Z,25.80
2019-01-18T10:44:47.822Z,26.50
2019-01-18T10:45:47.787Z,28.50
2019-01-18T10:46:47.800Z,25.60
2019-01-18T10:47:47.772Z,27.30
2019-01-18T10:48:47.781Z,26.10
2019-01-18T10:49:47.795Z,22.60
2019-01-18T10:50:47.737Z,24.40
2019-01-18T10:51:47.729Z,26.70
2019-01-18T10:52:47.736Z,27.20
2019-01-18T10:53:47.739Z,27.70
2019-01-18T10:54:47.719Z,24.80
2019-01-18T10:55:47.678Z,23.80
2019-01-18T10:56:47.673Z,26.10
2019-01-18T10:57:47.665Z,27.00
2019-01-18T10:58:47.737Z,24.40
2019-01-18T11:25:01.883Z,19.20
2019-01-18T11:25:34.854Z,19.20
2019-01-18T11:26:34.837Z,19.70
2019-01-18T11:27:34.849Z,20.80
2019-01-18T11:28:34.817Z,19.80
2019-01-18T11:29:34.816Z,19.60
2019-01-18T11:30:34.804Z,17.60
2019-01-18T11:31:34.786Z,21.40
2019-01-18T11:32:34.797Z,18.90
2019-01-18T11:33:34.786Z,21.60
2019-01-18T11:34:34.791Z,18.60
2019-01-18T11:35:34.745Z,19.40
2019-01-18T11:36:34.738Z,17.80
2019-01-18T11:37:34.754Z,21.00
2019-01-18T11:38:34.724Z,20.50
2019-01-18T11:39:34.703Z,17.60
2019-01-18T11:40:34.691Z,19.00
2019-01-18T11:41:34.681Z,21.20
2019-01-18T11:42:34.684Z,20.40
2019-01-18T11:43:34.695Z,19.40
2019-01-18T11:44:34.677Z,20.40
2019-01-18T11:45:34.641Z,23.10
2019-01-18T11:46:34.646Z,22.40
2019-01-18T11:47:34.641Z,20.00
2019-01-18T11:48:34.708Z,21.30
2019-01-18T11:49:34.594Z,18.70
2019-01-18T11:50:34.587Z,18.80
2019-01-18T11:51:34.581Z,19.50
2019-01-18T11:52:34.634Z,20.50
2019-01-18T11:53:34.558Z,22.70
2019-01-18T11:54:34.551Z,22.90
2019-01-18T11:55:34.531Z,22.00
2019-01-18T11:56:34.546Z,21.80
2019-01-18T11:57:34.584Z,18.10
2019-01-18T11:58:34.497Z,17.30
2019-01-18T11:59:34.497Z,19.20
2019-01-18T12:00:37.838Z,19.00
2019-01-18T12:01:34.468Z,22.10
2019-01-18T12:02:34.479Z,19.80
2019-01-18T12:03:34.452Z,19.80
2019-01-18T12:04:34.467Z,20.30
2019-01-18T12:05:34.423Z,21.70
2019-01-18T12:06:34.473Z,21.30
2019-01-18T12:07:34.404Z,25.10
2019-01-18T12:08:34.449Z,24.80
2019-01-18T12:09:34.377Z,24.60
2019-01-18T12:10:34.364Z,25.50
2019-01-18T12:11:34.349Z,23.40
2019-01-18T12:12:34.349Z,24.10
2019-01-18T12:13:34.368Z,22.60
2019-01-18T12:14:34.337Z,23.40
2019-01-18T12:15:34.311Z,24.30
2019-01-18T12:16:34.303Z,23.50
2019-01-18T12:17:34.290Z,23.70
2019-01-18T12:18:34.277Z,20.60
2019-01-18T12:19:34.293Z,24.00
2019-01-18T12:20:34.260Z,26.40
2019-01-18T12:21:37.237Z,25.50
2019-01-18T12:22:34.234Z,24.50
2019-01-18T12:23:34.222Z,26.20
2019-01-18T12:24:34.233Z,27.60
2019-01-18T12:25:34.200Z,26.70
2019-01-18T12:26:34.188Z,24.10
2019-01-18T12:27:34.178Z,26.70
2019-01-18T12:28:34.272Z,22.90
2019-01-18T12:29:34.205Z,21.10
2019-01-18T12:30:34.150Z,22.90
2019-01-18T12:31:34.140Z,27.80
2019-01-18T12:32:34.174Z,21.90
2019-01-18T12:33:34.116Z,23.80
2019-01-18T12:34:34.102Z,26.20
2019-01-18T12:35:34.119Z,24.90
2019-01-18T12:36:34.081Z,23.70
2019-01-18T12:42:45.727Z,30.30
2019-01-18T12:43:18.706Z,24.80
2019-01-18T13:12:14.246Z,16.80
2019-01-18T13:12:47.162Z,18.20
2019-01-18T13:13:47.150Z,22.00
2019-01-18T13:14:47.133Z,19.60
2019-01-18T13:15:47.118Z,21.30
2019-01-18T13:16:47.109Z,20.20
2019-01-18T13:17:47.121Z,19.50
2019-01-18T13:18:47.087Z,17.10
2019-01-18T13:19:47.078Z,18.60
2019-01-18T13:20:47.065Z,15.90
2019-01-18T13:21:47.054Z,15.20
2019-01-18T13:22:47.073Z,15.20
2019-01-18T13:23:47.036Z,14.10
2019-01-18T13:24:47.030Z,14.40
2019-01-18T14:28:48.883Z,16.30
2019-01-18T14:29:21.873Z,15.60
2019-01-18T14:30:21.899Z,17.70
2019-01-18T14:31:21.819Z,19.10
2019-01-18T14:32:21.865Z,17.20
2019-01-18T14:33:21.833Z,16.30
2019-01-18T14:34:21.795Z,16.70
2019-01-18T14:35:21.799Z,15.90
2019-01-18T14:37:48.768Z,17.80
2019-01-18T14:37:55.087Z,15.50
2019-01-18T15:37:22.172Z,18.40
2019-01-18T15:38:16.104Z,20.50
2019-01-18T15:39:16.061Z,22.50
2019-01-18T15:40:16.038Z,22.80
2019-01-18T15:41:16.046Z,17.70
2019-01-18T15:42:16.015Z,22.50
2019-01-18T15:43:16.008Z,20.00
2019-01-18T15:44:15.998Z,18.90
2019-01-18T15:45:15.985Z,22.10
2019-01-18T15:46:16.014Z,20.90
2019-01-18T15:47:15.969Z,20.50
2019-01-18T15:48:15.954Z,19.50
2019-01-18T15:49:15.943Z,19.50
2019-01-18T15:50:15.934Z,22.90
2019-01-18T15:51:15.923Z,24.60
2019-01-18T15:52:15.933Z,20.90
2019-01-18T15:53:15.899Z,19.00
2019-01-18T15:54:15.891Z,19.00
2019-01-18T15:55:15.873Z,17.00
2019-01-18T15:56:15.863Z,22.40
2019-01-18T15:57:15.883Z,23.30
2019-01-18T15:58:15.844Z,20.60
2019-01-18T15:59:15.830Z,20.80
2019-01-18T16:00:15.822Z,24.90
2019-01-18T23:26:47.693Z,34.70
2019-01-18T23:27:20.653Z,35.40
2019-01-18T23:28:20.664Z,39.60
2019-01-18T23:29:20.627Z,38.40
2019-01-18T23:30:20.616Z,33.70
2019-01-18T23:31:20.606Z,35.30
2019-01-18T23:32:20.594Z,34.50
2019-01-18T23:33:20.612Z,38.40
2019-01-18T23:34:20.582Z,35.60
2019-01-18T23:35:20.577Z,34.50
2019-01-18T23:36:20.559Z,32.70
2019-01-18T23:37:20.561Z,35.00
2019-01-18T23:38:20.568Z,35.00
2019-01-18T23:39:20.529Z,37.50
2019-01-18T23:40:20.516Z,37.10
2019-01-18T23:41:20.502Z,30.90
2019-01-18T23:42:20.493Z,35.10
2019-01-18T23:43:20.525Z,35.10
2019-01-18T23:44:20.478Z,33.10
2019-01-18T23:45:20.462Z,33.30
2019-01-18T23:46:20.456Z,32.30
2019-01-18T23:47:20.439Z,32.70
2019-01-18T23:48:20.430Z,34.80
2019-01-18T23:49:20.960Z,34.70
2019-01-18T23:50:20.408Z,34.70
2019-01-18T23:51:20.421Z,36.80
2019-01-18T23:52:20.384Z,35.30
2019-01-18T23:53:20.377Z,36.20
2019-01-18T23:54:20.397Z,34.30
2019-01-18T23:55:20.347Z,32.60
2019-01-18T23:56:20.352Z,37.60
2019-01-18T23:57:20.373Z,35.30
2019-01-18T23:58:20.371Z,35.60
2019-01-18T23:59:20.334Z,36.40
